This is the latest recevied weather packets stored in our database for station/object EA2ESA-13. If no packets are shown the sender has not sent any weather packets the latest 1 day(s).
| Time | Temp. | Humidity | Pressure | Rain* | Wind** | Luminosity | Snow |
|---|---|---|---|---|---|---|---|
| 1778093154 | 16.11° C | 74% | 1018.9 hPa | 0 mm | 0 m/s | - | - |
| 1778091952 | 16.67° C | 73% | 1018.8 hPa | 0 mm | 0 m/s | - | - |
| 1778090751 | 16.67° C | 72% | 1018.9 hPa | 0 mm | 0 m/s | - | - |
| 1778090150 | 16.67° C | 71% | 1018.8 hPa | 0 mm | 0 m/s | - | - |
| 1778087746 | 17.22° C | 71% | 1018.9 hPa | 0 mm | 0 m/s | - | - |
| 1778085342 | 17.22° C | 69% | 1018.9 hPa | 0 mm | 0 m/s | - | - |
| 1778084741 | 17.78° C | 69% | 1018.9 hPa | 0 mm | 0 m/s | - | - |
| 1778084140 | 17.78° C | 69% | 1018.9 hPa | 0 mm | 0 m/s | - | - |
| 1778083538 | 17.78° C | 69% | 1018.9 hPa | 0 mm | 0 m/s | - | - |
| 1778081736 | 17.22° C | 69% | 1019 hPa | 0 mm | 0 m/s | - | - |
| 1778074524 | 16.11° C | 76% | 1019.5 hPa | 0 mm | 0 m/s | - | - |
| 1778073923 | 16.11° C | 75% | 1019.4 hPa | 0 mm | 0 m/s | - | - |
| 1778071518 | 16.67° C | 77% | 1019.2 hPa | 0 mm | 0 m/s | - | - |
| 1778070317 | 15.56° C | 77% | 1019.1 hPa | 0 mm | 0 m/s | - | - |
| 1778069115 | 15.56° C | 78% | 1019 hPa | 0 mm | 0 m/s | - | - |
| 1778068514 | 15.56° C | 78% | 1019.1 hPa | 0 mm | 0 m/s | - | - |
| 1778067913 | 15.56° C | 77% | 1019.1 hPa | 0 mm | 0 m/s | - | - |
| 1778066711 | 16.11° C | 74% | 1019 hPa | 0 mm | 0 m/s | - | - |
| 1778064308 | 16.11° C | 73% | 1018.8 hPa | 0 mm | 0 m/s | - | - |
| 1778061904 | 15° C | 79% | 1018.8 hPa | 0 mm | 0 m/s | - | - |
| 1778060101 | 15° C | 79% | 1018.8 hPa | 0 mm | 0 m/s | - | - |
| 1778059500 | 15° C | 79% | 1018.7 hPa | 0 mm | 0 m/s | - | - |
| 1778058900 | 15° C | 80% | 1018.7 hPa | 0 mm | 0 m/s | - | - |
| 1778058298 | 14.44° C | 80% | 1018.7 hPa | 0 mm | 0 m/s | - | - |
| 1778057698 | 14.44° C | 79% | 1018.7 hPa | 0 mm | 0 m/s | - | - |
* Rain latest hour (hover to see other rain measurements)
** Current wind speed in m/s (hover to see current wind gust speed)